sensor_id;sensor_type;location;lat;lon;timestamp;P1;durP1;ratioP1;P2;durP2;ratioP2
37355;SDS011;48747;50.250;18.848;2022-10-13T00:02:02;59.18;;;29.82;;
37355;SDS011;48747;50.250;18.848;2022-10-13T00:04:14;57.00;;;27.73;;
37355;SDS011;48747;50.250;18.848;2022-10-13T00:06:18;56.88;;;26.97;;
37355;SDS011;48747;50.250;18.848;2022-10-13T00:08:22;54.05;;;27.52;;
37355;SDS011;48747;50.250;18.848;2022-10-13T00:10:30;51.13;;;27.17;;
37355;SDS011;48747;50.250;18.848;2022-10-13T00:12:40;55.00;;;27.70;;
37355;SDS011;48747;50.250;18.848;2022-10-13T00:14:42;53.60;;;26.40;;
37355;SDS011;48747;50.250;18.848;2022-10-13T00:16:51;57.10;;;26.90;;
37355;SDS011;48747;50.250;18.848;2022-10-13T00:18:59;61.60;;;26.48;;
37355;SDS011;48747;50.250;18.848;2022-10-13T00:20:58;51.88;;;26.33;;
37355;SDS011;48747;50.250;18.848;2022-10-13T00:23:05;54.65;;;25.10;;
37355;SDS011;48747;50.250;18.848;2022-10-13T00:25:08;57.25;;;24.57;;
37355;SDS011;48747;50.250;18.848;2022-10-13T00:27:12;51.90;;;25.12;;
37355;SDS011;48747;50.250;18.848;2022-10-13T00:29:16;66.62;;;32.40;;
37355;SDS011;48747;50.250;18.848;2022-10-13T00:31:23;81.67;;;39.55;;
37355;SDS011;48747;50.250;18.848;2022-10-13T00:33:30;92.97;;;44.27;;
37355;SDS011;48747;50.250;18.848;2022-10-13T00:35:39;102.30;;;48.83;;
37355;SDS011;48747;50.250;18.848;2022-10-13T00:37:48;119.35;;;56.20;;
37355;SDS011;48747;50.250;18.848;2022-10-13T00:39:52;118.15;;;56.48;;
37355;SDS011;48747;50.250;18.848;2022-10-13T00:41:58;121.02;;;59.20;;
37355;SDS011;48747;50.250;18.848;2022-10-13T00:44:02;125.67;;;58.78;;
37355;SDS011;48747;50.250;18.848;2022-10-13T00:46:13;115.75;;;54.63;;
37355;SDS011;48747;50.250;18.848;2022-10-13T00:48:14;120.10;;;57.78;;
37355;SDS011;48747;50.250;18.848;2022-10-13T00:50:30;122.07;;;54.08;;
37355;SDS011;48747;50.250;18.848;2022-10-13T00:52:38;130.25;;;61.13;;
37355;SDS011;48747;50.250;18.848;2022-10-13T00:54:44;127.53;;;61.00;;
37355;SDS011;48747;50.250;18.848;2022-10-13T00:56:50;127.50;;;60.80;;
37355;SDS011;48747;50.250;18.848;2022-10-13T00:58:56;110.50;;;53.70;;
37355;SDS011;48747;50.250;18.848;2022-10-13T01:01:03;107.27;;;54.75;;
37355;SDS011;48747;50.250;18.848;2022-10-13T01:03:07;118.62;;;62.60;;
37355;SDS011;48747;50.250;18.848;2022-10-13T01:05:11;108.75;;;54.75;;
37355;SDS011;48747;50.250;18.848;2022-10-13T01:07:16;102.22;;;52.13;;
37355;SDS011;48747;50.250;18.848;2022-10-13T01:09:22;84.13;;;40.92;;
37355;SDS011;48747;50.250;18.848;2022-10-13T01:11:33;73.12;;;36.03;;
37355;SDS011;48747;50.250;18.848;2022-10-13T01:15:59;59.23;;;30.43;;
37355;SDS011;48747;50.250;18.848;2022-10-13T01:18:08;51.28;;;24.57;;
37355;SDS011;48747;50.250;18.848;2022-10-13T01:30:18;46.33;;;23.62;;
37355;SDS011;48747;50.250;18.848;2022-10-13T01:34:51;41.05;;;21.40;;
37355;SDS011;48747;50.250;18.848;2022-10-13T01:39:06;42.30;;;22.70;;
37355;SDS011;48747;50.250;18.848;2022-10-13T01:41:18;49.50;;;23.45;;
37355;SDS011;48747;50.250;18.848;2022-10-13T01:43:24;49.80;;;24.72;;
37355;SDS011;48747;50.250;18.848;2022-10-13T01:45:37;60.23;;;30.62;;
37355;SDS011;48747;50.250;18.848;2022-10-13T01:47:56;51.37;;;25.15;;
37355;SDS011;48747;50.250;18.848;2022-10-13T01:50:05;49.88;;;24.67;;
37355;SDS011;48747;50.250;18.848;2022-10-13T01:52:15;53.38;;;28.12;;
37355;SDS011;48747;50.250;18.848;2022-10-13T01:54:21;63.47;;;33.37;;
37355;SDS011;48747;50.250;18.848;2022-10-13T01:56:31;64.60;;;31.75;;
37355;SDS011;48747;50.250;18.848;2022-10-13T01:58:32;75.37;;;34.10;;
37355;SDS011;48747;50.250;18.848;2022-10-13T02:00:42;74.97;;;34.92;;
37355;SDS011;48747;50.250;18.848;2022-10-13T02:02:56;65.50;;;33.50;;
37355;SDS011;48747;50.250;18.848;2022-10-13T02:07:37;65.72;;;34.23;;
37355;SDS011;48747;50.250;18.848;2022-10-13T02:09:43;64.05;;;35.60;;
37355;SDS011;48747;50.250;18.848;2022-10-13T02:12:07;65.80;;;35.08;;
37355;SDS011;48747;50.250;18.848;2022-10-13T02:14:15;69.50;;;36.13;;
37355;SDS011;48747;50.250;18.848;2022-10-13T02:16:19;70.52;;;36.98;;
37355;SDS011;48747;50.250;18.848;2022-10-13T02:18:27;72.47;;;36.58;;
37355;SDS011;48747;50.250;18.848;2022-10-13T02:20:36;65.22;;;34.90;;
37355;SDS011;48747;50.250;18.848;2022-10-13T02:22:42;68.85;;;34.75;;
37355;SDS011;48747;50.250;18.848;2022-10-13T02:24:46;71.33;;;36.42;;
37355;SDS011;48747;50.250;18.848;2022-10-13T02:26:51;79.45;;;38.90;;
37355;SDS011;48747;50.250;18.848;2022-10-13T02:28:55;76.97;;;39.48;;
37355;SDS011;48747;50.250;18.848;2022-10-13T02:31:01;75.97;;;39.00;;
37355;SDS011;48747;50.250;18.848;2022-10-13T02:33:06;79.77;;;41.10;;
37355;SDS011;48747;50.250;18.848;2022-10-13T02:35:10;75.92;;;39.88;;
37355;SDS011;48747;50.250;18.848;2022-10-13T02:37:13;84.85;;;39.30;;
37355;SDS011;48747;50.250;18.848;2022-10-13T02:39:18;76.25;;;38.53;;
37355;SDS011;48747;50.250;18.848;2022-10-13T02:41:21;76.37;;;37.88;;
37355;SDS011;48747;50.250;18.848;2022-10-13T02:45:32;79.40;;;38.73;;
37355;SDS011;48747;50.250;18.848;2022-10-13T02:47:37;78.10;;;38.75;;
37355;SDS011;48747;50.250;18.848;2022-10-13T02:49:46;70.40;;;36.95;;
37355;SDS011;48747;50.250;18.848;2022-10-13T02:51:48;75.80;;;38.98;;
37355;SDS011;48747;50.250;18.848;2022-10-13T02:53:57;74.27;;;37.48;;
37355;SDS011;48747;50.250;18.848;2022-10-13T02:55:58;73.50;;;37.63;;
37355;SDS011;48747;50.250;18.848;2022-10-13T02:58:02;75.92;;;38.23;;
37355;SDS011;48747;50.250;18.848;2022-10-13T03:00:07;67.35;;;36.85;;
37355;SDS011;48747;50.250;18.848;2022-10-13T03:02:12;73.42;;;36.10;;
37355;SDS011;48747;50.250;18.848;2022-10-13T03:04:31;70.75;;;36.40;;
37355;SDS011;48747;50.250;18.848;2022-10-13T03:06:25;67.10;;;34.15;;
37355;SDS011;48747;50.250;18.848;2022-10-13T03:08:31;70.90;;;33.80;;
37355;SDS011;48747;50.250;18.848;2022-10-13T03:10:42;67.95;;;32.78;;
37355;SDS011;48747;50.250;18.848;2022-10-13T03:12:46;63.90;;;31.70;;
37355;SDS011;48747;50.250;18.848;2022-10-13T03:14:49;58.65;;;30.57;;
37355;SDS011;48747;50.250;18.848;2022-10-13T03:16:52;68.12;;;30.57;;
37355;SDS011;48747;50.250;18.848;2022-10-13T03:18:55;53.73;;;28.95;;
37355;SDS011;48747;50.250;18.848;2022-10-13T03:21:01;51.92;;;28.23;;
37355;SDS011;48747;50.250;18.848;2022-10-13T03:23:08;57.85;;;28.05;;
37355;SDS011;48747;50.250;18.848;2022-10-13T03:25:16;48.85;;;27.07;;
37355;SDS011;48747;50.250;18.848;2022-10-13T03:27:15;56.28;;;28.73;;
37355;SDS011;48747;50.250;18.848;2022-10-13T03:29:23;56.15;;;28.17;;
37355;SDS011;48747;50.250;18.848;2022-10-13T03:31:31;54.48;;;29.32;;
37355;SDS011;48747;50.250;18.848;2022-10-13T03:33:32;59.18;;;29.20;;
37355;SDS011;48747;50.250;18.848;2022-10-13T03:35:36;59.38;;;30.82;;
37355;SDS011;48747;50.250;18.848;2022-10-13T03:37:47;55.85;;;29.87;;
37355;SDS011;48747;50.250;18.848;2022-10-13T03:39:48;53.42;;;31.70;;
37355;SDS011;48747;50.250;18.848;2022-10-13T03:41:54;62.27;;;33.08;;
37355;SDS011;48747;50.250;18.848;2022-10-13T03:44:01;55.65;;;30.90;;
37355;SDS011;48747;50.250;18.848;2022-10-13T03:46:06;56.10;;;29.40;;
37355;SDS011;48747;50.250;18.848;2022-10-13T03:48:11;51.48;;;28.20;;
37355;SDS011;48747;50.250;18.848;2022-10-13T03:50:22;53.13;;;29.30;;
37355;SDS011;48747;50.250;18.848;2022-10-13T03:52:26;61.58;;;29.98;;
37355;SDS011;48747;50.250;18.848;2022-10-13T03:54:30;61.75;;;31.97;;
37355;SDS011;48747;50.250;18.848;2022-10-13T03:56:33;62.53;;;30.77;;
37355;SDS011;48747;50.250;18.848;2022-10-13T03:58:43;56.73;;;29.48;;
37355;SDS011;48747;50.250;18.848;2022-10-13T04:00:45;50.48;;;29.05;;
37355;SDS011;48747;50.250;18.848;2022-10-13T04:02:50;51.40;;;29.25;;
37355;SDS011;48747;50.250;18.848;2022-10-13T04:04:54;57.93;;;29.10;;
37355;SDS011;48747;50.250;18.848;2022-10-13T04:06:59;53.25;;;29.63;;
37355;SDS011;48747;50.250;18.848;2022-10-13T04:09:09;51.85;;;28.75;;
37355;SDS011;48747;50.250;18.848;2022-10-13T04:11:10;52.45;;;29.87;;
37355;SDS011;48747;50.250;18.848;2022-10-13T04:13:14;55.58;;;29.25;;
37355;SDS011;48747;50.250;18.848;2022-10-13T04:15:17;57.65;;;28.90;;
37355;SDS011;48747;50.250;18.848;2022-10-13T04:17:20;51.63;;;28.75;;
37355;SDS011;48747;50.250;18.848;2022-10-13T04:19:25;45.92;;;27.22;;
37355;SDS011;48747;50.250;18.848;2022-10-13T04:21:33;52.70;;;27.55;;
37355;SDS011;48747;50.250;18.848;2022-10-13T04:23:35;50.08;;;27.90;;
37355;SDS011;48747;50.250;18.848;2022-10-13T04:25:39;49.93;;;27.13;;
37355;SDS011;48747;50.250;18.848;2022-10-13T04:27:42;54.73;;;27.48;;
37355;SDS011;48747;50.250;18.848;2022-10-13T04:29:49;55.65;;;27.50;;
37355;SDS011;48747;50.250;18.848;2022-10-13T04:32:06;49.18;;;26.93;;
37355;SDS011;48747;50.250;18.848;2022-10-13T04:34:03;52.55;;;28.05;;
37355;SDS011;48747;50.250;18.848;2022-10-13T04:36:08;49.75;;;27.62;;
37355;SDS011;48747;50.250;18.848;2022-10-13T04:38:14;58.28;;;30.00;;
37355;SDS011;48747;50.250;18.848;2022-10-13T04:40:18;55.38;;;28.00;;
37355;SDS011;48747;50.250;18.848;2022-10-13T04:42:27;62.20;;;30.30;;
37355;SDS011;48747;50.250;18.848;2022-10-13T04:44:31;63.15;;;31.12;;
37355;SDS011;48747;50.250;18.848;2022-10-13T04:46:34;53.65;;;29.85;;
37355;SDS011;48747;50.250;18.848;2022-10-13T04:48:40;60.20;;;30.45;;
37355;SDS011;48747;50.250;18.848;2022-10-13T04:50:44;60.38;;;29.67;;
37355;SDS011;48747;50.250;18.848;2022-10-13T04:52:49;58.48;;;30.55;;
37355;SDS011;48747;50.250;18.848;2022-10-13T04:54:53;59.50;;;31.30;;
37355;SDS011;48747;50.250;18.848;2022-10-13T04:56:57;55.38;;;31.25;;
37355;SDS011;48747;50.250;18.848;2022-10-13T04:59:01;58.60;;;31.42;;
37355;SDS011;48747;50.250;18.848;2022-10-13T05:01:06;57.13;;;30.48;;
37355;SDS011;48747;50.250;18.848;2022-10-13T05:05:46;54.40;;;28.43;;
37355;SDS011;48747;50.250;18.848;2022-10-13T05:11:03;57.53;;;30.60;;
37355;SDS011;48747;50.250;18.848;2022-10-13T05:13:12;59.15;;;29.63;;
37355;SDS011;48747;50.250;18.848;2022-10-13T05:18:42;56.55;;;28.92;;
37355;SDS011;48747;50.250;18.848;2022-10-13T05:23:41;49.65;;;27.45;;
37355;SDS011;48747;50.250;18.848;2022-10-13T05:26:15;53.17;;;28.67;;
37355;SDS011;48747;50.250;18.848;2022-10-13T05:28:26;52.40;;;28.38;;
37355;SDS011;48747;50.250;18.848;2022-10-13T05:30:51;60.30;;;32.40;;
37355;SDS011;48747;50.250;18.848;2022-10-13T05:33:09;53.63;;;29.67;;
37355;SDS011;48747;50.250;18.848;2022-10-13T05:38:00;59.45;;;32.30;;
37355;SDS011;48747;50.250;18.848;2022-10-13T05:46:00;55.80;;;29.02;;
37355;SDS011;48747;50.250;18.848;2022-10-13T05:53:03;59.40;;;32.40;;
37355;SDS011;48747;50.250;18.848;2022-10-13T06:03:18;60.70;;;30.08;;
37355;SDS011;48747;50.250;18.848;2022-10-13T06:05:35;53.48;;;28.80;;
37355;SDS011;48747;50.250;18.848;2022-10-13T06:08:03;61.25;;;33.78;;
37355;SDS011;48747;50.250;18.848;2022-10-13T06:10:34;62.05;;;33.05;;
37355;SDS011;48747;50.250;18.848;2022-10-13T06:15:22;65.92;;;31.73;;
37355;SDS011;48747;50.250;18.848;2022-10-13T06:17:53;61.08;;;29.85;;
37355;SDS011;48747;50.250;18.848;2022-10-13T06:20:16;54.33;;;29.70;;
37355;SDS011;48747;50.250;18.848;2022-10-13T06:28:18;49.80;;;29.87;;
37355;SDS011;48747;50.250;18.848;2022-10-13T06:30:33;43.68;;;22.42;;
37355;SDS011;48747;50.250;18.848;2022-10-13T06:35:36;52.67;;;28.05;;
37355;SDS011;48747;50.250;18.848;2022-10-13T06:43:38;47.23;;;26.17;;
37355;SDS011;48747;50.250;18.848;2022-10-13T06:48:45;47.35;;;26.73;;
37355;SDS011;48747;50.250;18.848;2022-10-13T06:54:16;49.25;;;26.07;;
37355;SDS011;48747;50.250;18.848;2022-10-13T06:56:42;49.48;;;25.52;;
37355;SDS011;48747;50.250;18.848;2022-10-13T07:25:22;43.42;;;25.35;;
37355;SDS011;48747;50.250;18.848;2022-10-13T07:27:40;45.15;;;25.52;;
37355;SDS011;48747;50.250;18.848;2022-10-13T07:29:56;45.92;;;26.00;;
37355;SDS011;48747;50.250;18.848;2022-10-13T07:32:05;42.88;;;25.40;;
37355;SDS011;48747;50.250;18.848;2022-10-13T07:34:10;43.40;;;25.70;;
37355;SDS011;48747;50.250;18.848;2022-10-13T07:36:16;42.45;;;24.57;;
37355;SDS011;48747;50.250;18.848;2022-10-13T07:38:27;41.25;;;26.33;;
37355;SDS011;48747;50.250;18.848;2022-10-13T07:40:26;42.27;;;24.07;;
37355;SDS011;48747;50.250;18.848;2022-10-13T07:42:39;42.48;;;24.18;;
37355;SDS011;48747;50.250;18.848;2022-10-13T07:45:08;40.00;;;24.90;;
37355;SDS011;48747;50.250;18.848;2022-10-13T07:47:20;42.88;;;25.55;;
37355;SDS011;48747;50.250;18.848;2022-10-13T07:49:50;38.73;;;22.17;;
37355;SDS011;48747;50.250;18.848;2022-10-13T07:52:08;39.78;;;23.18;;
37355;SDS011;48747;50.250;18.848;2022-10-13T07:54:26;40.03;;;23.40;;
37355;SDS011;48747;50.250;18.848;2022-10-13T07:56:31;46.95;;;25.37;;
37355;SDS011;48747;50.250;18.848;2022-10-13T07:58:42;39.63;;;24.02;;
37355;SDS011;48747;50.250;18.848;2022-10-13T08:01:08;35.00;;;21.50;;
37355;SDS011;48747;50.250;18.848;2022-10-13T08:03:42;40.20;;;21.07;;
37355;SDS011;48747;50.250;18.848;2022-10-13T08:05:58;35.35;;;20.23;;
37355;SDS011;48747;50.250;18.848;2022-10-13T08:08:10;35.30;;;21.40;;
37355;SDS011;48747;50.250;18.848;2022-10-13T08:12:43;35.95;;;19.87;;
37355;SDS011;48747;50.250;18.848;2022-10-13T08:14:58;31.65;;;19.65;;
37355;SDS011;48747;50.250;18.848;2022-10-13T08:17:07;33.55;;;19.45;;
37355;SDS011;48747;50.250;18.848;2022-10-13T08:19:20;32.17;;;18.50;;
37355;SDS011;48747;50.250;18.848;2022-10-13T08:21:29;30.97;;;18.42;;
37355;SDS011;48747;50.250;18.848;2022-10-13T08:23:42;38.50;;;19.60;;
37355;SDS011;48747;50.250;18.848;2022-10-13T08:26:04;42.13;;;20.02;;
37355;SDS011;48747;50.250;18.848;2022-10-13T08:28:25;35.98;;;17.60;;
37355;SDS011;48747;50.250;18.848;2022-10-13T08:30:32;31.45;;;18.70;;
37355;SDS011;48747;50.250;18.848;2022-10-13T08:32:58;35.85;;;19.62;;
37355;SDS011;48747;50.250;18.848;2022-10-13T08:35:36;37.98;;;19.87;;
37355;SDS011;48747;50.250;18.848;2022-10-13T08:37:58;36.08;;;22.17;;
37355;SDS011;48747;50.250;18.848;2022-10-13T08:40:13;36.73;;;21.57;;
37355;SDS011;48747;50.250;18.848;2022-10-13T08:42:19;34.58;;;19.75;;
37355;SDS011;48747;50.250;18.848;2022-10-13T08:44:24;32.23;;;19.80;;
37355;SDS011;48747;50.250;18.848;2022-10-13T08:46:32;35.55;;;19.60;;
37355;SDS011;48747;50.250;18.848;2022-10-13T08:48:44;36.63;;;18.77;;
37355;SDS011;48747;50.250;18.848;2022-10-13T08:50:51;40.23;;;22.27;;
37355;SDS011;48747;50.250;18.848;2022-10-13T08:52:59;30.40;;;18.30;;
37355;SDS011;48747;50.250;18.848;2022-10-13T08:55:07;84.95;;;21.90;;
37355;SDS011;48747;50.250;18.848;2022-10-13T08:57:11;36.65;;;18.07;;
37355;SDS011;48747;50.250;18.848;2022-10-13T08:59:16;38.65;;;18.23;;
37355;SDS011;48747;50.250;18.848;2022-10-13T09:01:22;34.50;;;17.87;;
37355;SDS011;48747;50.250;18.848;2022-10-13T09:03:28;35.05;;;15.75;;
37355;SDS011;48747;50.250;18.848;2022-10-13T09:05:42;28.47;;;16.00;;
37355;SDS011;48747;50.250;18.848;2022-10-13T09:07:42;32.85;;;16.55;;
37355;SDS011;48747;50.250;18.848;2022-10-13T09:09:52;30.55;;;16.35;;
37355;SDS011;48747;50.250;18.848;2022-10-13T09:11:57;29.55;;;15.88;;
37355;SDS011;48747;50.250;18.848;2022-10-13T09:14:09;26.70;;;15.53;;
37355;SDS011;48747;50.250;18.848;2022-10-13T09:16:22;37.40;;;17.67;;
37355;SDS011;48747;50.250;18.848;2022-10-13T09:18:20;32.85;;;16.95;;
37355;SDS011;48747;50.250;18.848;2022-10-13T09:20:28;30.00;;;17.32;;
37355;SDS011;48747;50.250;18.848;2022-10-13T09:22:34;27.27;;;16.07;;
37355;SDS011;48747;50.250;18.848;2022-10-13T09:24:39;31.57;;;16.82;;
37355;SDS011;48747;50.250;18.848;2022-10-13T09:26:43;30.10;;;17.52;;
37355;SDS011;48747;50.250;18.848;2022-10-13T09:28:47;32.10;;;17.50;;
37355;SDS011;48747;50.250;18.848;2022-10-13T09:31:04;31.52;;;17.35;;
37355;SDS011;48747;50.250;18.848;2022-10-13T09:35:24;26.23;;;14.65;;
37355;SDS011;48747;50.250;18.848;2022-10-13T09:37:27;30.52;;;15.58;;
37355;SDS011;48747;50.250;18.848;2022-10-13T09:39:31;28.12;;;15.50;;
37355;SDS011;48747;50.250;18.848;2022-10-13T09:41:34;20.97;;;13.58;;
37355;SDS011;48747;50.250;18.848;2022-10-13T09:45:52;28.32;;;15.65;;
37355;SDS011;48747;50.250;18.848;2022-10-13T09:47:57;28.62;;;14.10;;
37355;SDS011;48747;50.250;18.848;2022-10-13T09:50:19;23.05;;;13.78;;
37355;SDS011;48747;50.250;18.848;2022-10-13T09:52:35;24.47;;;14.45;;
37355;SDS011;48747;50.250;18.848;2022-10-13T09:56:48;22.62;;;13.98;;
37355;SDS011;48747;50.250;18.848;2022-10-13T09:58:57;21.00;;;12.93;;
37355;SDS011;48747;50.250;18.848;2022-10-13T10:01:21;23.20;;;13.93;;
37355;SDS011;48747;50.250;18.848;2022-10-13T10:03:31;26.87;;;14.18;;
37355;SDS011;48747;50.250;18.848;2022-10-13T10:08:01;25.32;;;13.58;;
37355;SDS011;48747;50.250;18.848;2022-10-13T10:12:33;27.87;;;14.83;;
37355;SDS011;48747;50.250;18.848;2022-10-13T10:14:38;21.95;;;14.15;;
37355;SDS011;48747;50.250;18.848;2022-10-13T10:16:44;23.75;;;13.13;;
37355;SDS011;48747;50.250;18.848;2022-10-13T10:18:48;23.35;;;12.55;;
37355;SDS011;48747;50.250;18.848;2022-10-13T10:21:07;24.65;;;12.70;;
37355;SDS011;48747;50.250;18.848;2022-10-13T10:23:13;23.18;;;12.78;;
37355;SDS011;48747;50.250;18.848;2022-10-13T10:27:34;28.95;;;13.95;;
37355;SDS011;48747;50.250;18.848;2022-10-13T10:30:27;24.47;;;13.10;;
37355;SDS011;48747;50.250;18.848;2022-10-13T10:32:09;23.83;;;12.78;;
37355;SDS011;48747;50.250;18.848;2022-10-13T10:36:55;22.17;;;12.95;;
37355;SDS011;48747;50.250;18.848;2022-10-13T10:39:11;23.52;;;11.53;;
37355;SDS011;48747;50.250;18.848;2022-10-13T10:43:42;22.10;;;12.25;;
37355;SDS011;48747;50.250;18.848;2022-10-13T10:45:47;22.48;;;12.05;;
37355;SDS011;48747;50.250;18.848;2022-10-13T10:47:51;23.67;;;11.63;;
37355;SDS011;48747;50.250;18.848;2022-10-13T10:50:06;27.42;;;12.00;;
37355;SDS011;48747;50.250;18.848;2022-10-13T10:52:09;23.83;;;12.07;;
37355;SDS011;48747;50.250;18.848;2022-10-13T10:54:20;22.45;;;11.80;;
37355;SDS011;48747;50.250;18.848;2022-10-13T10:56:48;19.23;;;11.83;;
37355;SDS011;48747;50.250;18.848;2022-10-13T11:03:58;28.12;;;12.13;;
37355;SDS011;48747;50.250;18.848;2022-10-13T11:06:04;23.73;;;12.53;;
37355;SDS011;48747;50.250;18.848;2022-10-13T11:08:29;21.02;;;11.95;;
37355;SDS011;48747;50.250;18.848;2022-10-13T11:10:45;23.18;;;10.93;;
37355;SDS011;48747;50.250;18.848;2022-10-13T11:19:31;19.52;;;11.88;;
37355;SDS011;48747;50.250;18.848;2022-10-13T11:23:59;18.65;;;11.10;;
37355;SDS011;48747;50.250;18.848;2022-10-13T11:26:17;22.27;;;10.80;;
37355;SDS011;48747;50.250;18.848;2022-10-13T11:30:44;28.98;;;12.03;;
37355;SDS011;48747;50.250;18.848;2022-10-13T11:32:46;23.00;;;12.20;;
37355;SDS011;48747;50.250;18.848;2022-10-13T11:37:12;23.02;;;12.18;;
37355;SDS011;48747;50.250;18.848;2022-10-13T11:48:37;17.30;;;9.35;;
37355;SDS011;48747;50.250;18.848;2022-10-13T11:55:24;16.82;;;9.60;;
37355;SDS011;48747;50.250;18.848;2022-10-13T11:57:25;17.10;;;9.58;;
37355;SDS011;48747;50.250;18.848;2022-10-13T11:59:43;16.07;;;9.38;;
37355;SDS011;48747;50.250;18.848;2022-10-13T12:01:51;16.75;;;10.32;;
37355;SDS011;48747;50.250;18.848;2022-10-13T12:06:15;17.10;;;9.70;;
37355;SDS011;48747;50.250;18.848;2022-10-13T12:08:21;15.25;;;9.00;;
37355;SDS011;48747;50.250;18.848;2022-10-13T12:10:32;16.85;;;10.05;;
37355;SDS011;48747;50.250;18.848;2022-10-13T12:12:37;15.45;;;9.90;;
37355;SDS011;48747;50.250;18.848;2022-10-13T12:14:45;20.68;;;11.20;;
37355;SDS011;48747;50.250;18.848;2022-10-13T12:16:53;16.17;;;10.20;;
37355;SDS011;48747;50.250;18.848;2022-10-13T12:19:14;23.55;;;10.75;;
37355;SDS011;48747;50.250;18.848;2022-10-13T12:21:13;18.92;;;11.20;;
37355;SDS011;48747;50.250;18.848;2022-10-13T12:25:31;20.68;;;12.28;;
37355;SDS011;48747;50.250;18.848;2022-10-13T12:27:45;23.12;;;12.50;;
37355;SDS011;48747;50.250;18.848;2022-10-13T12:32:23;19.73;;;12.82;;
37355;SDS011;48747;50.250;18.848;2022-10-13T12:34:24;19.32;;;12.37;;
37355;SDS011;48747;50.250;18.848;2022-10-13T12:36:41;21.00;;;12.95;;
37355;SDS011;48747;50.250;18.848;2022-10-13T12:38:41;23.62;;;13.03;;
37355;SDS011;48747;50.250;18.848;2022-10-13T12:40:50;21.77;;;13.83;;
37355;SDS011;48747;50.250;18.848;2022-10-13T12:42:54;24.57;;;15.00;;
37355;SDS011;48747;50.250;18.848;2022-10-13T12:44:59;24.02;;;15.05;;
37355;SDS011;48747;50.250;18.848;2022-10-13T12:47:03;24.65;;;16.12;;
37355;SDS011;48747;50.250;18.848;2022-10-13T12:51:31;24.98;;;16.15;;
37355;SDS011;48747;50.250;18.848;2022-10-13T12:53:38;21.07;;;14.20;;
37355;SDS011;48747;50.250;18.848;2022-10-13T12:55:45;25.80;;;15.43;;
37355;SDS011;48747;50.250;18.848;2022-10-13T12:57:54;24.37;;;15.13;;
37355;SDS011;48747;50.250;18.848;2022-10-13T12:59:59;25.77;;;14.45;;
37355;SDS011;48747;50.250;18.848;2022-10-13T13:02:13;29.42;;;15.85;;
37355;SDS011;48747;50.250;18.848;2022-10-13T13:06:32;24.02;;;15.25;;
37355;SDS011;48747;50.250;18.848;2022-10-13T13:08:37;25.17;;;14.70;;
37355;SDS011;48747;50.250;18.848;2022-10-13T13:12:51;24.00;;;15.45;;
37355;SDS011;48747;50.250;18.848;2022-10-13T13:14:55;22.80;;;15.40;;
37355;SDS011;48747;50.250;18.848;2022-10-13T13:17:06;27.32;;;15.88;;
37355;SDS011;48747;50.250;18.848;2022-10-13T13:19:20;30.00;;;17.15;;
37355;SDS011;48747;50.250;18.848;2022-10-13T13:21:17;22.02;;;15.05;;
37355;SDS011;48747;50.250;18.848;2022-10-13T13:23:25;28.10;;;16.12;;
37355;SDS011;48747;50.250;18.848;2022-10-13T13:25:44;29.67;;;15.85;;
37355;SDS011;48747;50.250;18.848;2022-10-13T13:27:38;23.98;;;15.90;;
37355;SDS011;48747;50.250;18.848;2022-10-13T13:29:52;30.88;;;17.42;;
37355;SDS011;48747;50.250;18.848;2022-10-13T13:31:53;30.55;;;16.20;;
37355;SDS011;48747;50.250;18.848;2022-10-13T13:33:58;26.60;;;17.15;;
37355;SDS011;48747;50.250;18.848;2022-10-13T13:36:18;29.42;;;17.02;;
37355;SDS011;48747;50.250;18.848;2022-10-13T13:38:24;24.72;;;17.07;;
37355;SDS011;48747;50.250;18.848;2022-10-13T13:40:32;28.95;;;17.15;;
37355;SDS011;48747;50.250;18.848;2022-10-13T13:42:35;26.50;;;16.27;;
37355;SDS011;48747;50.250;18.848;2022-10-13T13:44:40;31.40;;;17.60;;
37355;SDS011;48747;50.250;18.848;2022-10-13T13:46:44;32.75;;;16.12;;
37355;SDS011;48747;50.250;18.848;2022-10-13T13:48:49;29.48;;;16.00;;
37355;SDS011;48747;50.250;18.848;2022-10-13T13:53:00;30.02;;;17.10;;
37355;SDS011;48747;50.250;18.848;2022-10-13T13:55:09;29.23;;;16.97;;
37355;SDS011;48747;50.250;18.848;2022-10-13T13:57:12;27.42;;;16.15;;
37355;SDS011;48747;50.250;18.848;2022-10-13T13:59:16;26.77;;;16.17;;
37355;SDS011;48747;50.250;18.848;2022-10-13T14:01:23;30.57;;;16.02;;
37355;SDS011;48747;50.250;18.848;2022-10-13T14:03:34;27.58;;;15.35;;
37355;SDS011;48747;50.250;18.848;2022-10-13T14:05:37;26.40;;;16.25;;
37355;SDS011;48747;50.250;18.848;2022-10-13T14:10:07;25.65;;;16.27;;
37355;SDS011;48747;50.250;18.848;2022-10-13T14:12:07;26.40;;;15.78;;
37355;SDS011;48747;50.250;18.848;2022-10-13T14:14:06;27.13;;;16.30;;
37355;SDS011;48747;50.250;18.848;2022-10-13T14:18:24;28.75;;;17.98;;
37355;SDS011;48747;50.250;18.848;2022-10-13T14:20:28;28.20;;;16.52;;
37355;SDS011;48747;50.250;18.848;2022-10-13T14:22:36;26.95;;;17.02;;
37355;SDS011;48747;50.250;18.848;2022-10-13T14:24:42;31.30;;;17.27;;
37355;SDS011;48747;50.250;18.848;2022-10-13T14:26:45;26.57;;;16.57;;
37355;SDS011;48747;50.250;18.848;2022-10-13T14:28:49;27.45;;;16.62;;
37355;SDS011;48747;50.250;18.848;2022-10-13T14:30:53;28.57;;;16.77;;
37355;SDS011;48747;50.250;18.848;2022-10-13T14:32:57;27.73;;;17.80;;
37355;SDS011;48747;50.250;18.848;2022-10-13T14:35:04;31.77;;;17.92;;
37355;SDS011;48747;50.250;18.848;2022-10-13T14:37:08;25.77;;;18.27;;
37355;SDS011;48747;50.250;18.848;2022-10-13T14:39:11;36.10;;;17.67;;
37355;SDS011;48747;50.250;18.848;2022-10-13T14:41:14;34.05;;;18.40;;
37355;SDS011;48747;50.250;18.848;2022-10-13T14:43:18;27.62;;;17.90;;
37355;SDS011;48747;50.250;18.848;2022-10-13T14:45:21;30.68;;;18.30;;
37355;SDS011;48747;50.250;18.848;2022-10-13T14:47:24;34.03;;;20.10;;
37355;SDS011;48747;50.250;18.848;2022-10-13T14:49:28;32.38;;;19.60;;
37355;SDS011;48747;50.250;18.848;2022-10-13T14:51:31;36.03;;;20.48;;
37355;SDS011;48747;50.250;18.848;2022-10-13T14:53:35;25.60;;;17.15;;
37355;SDS011;48747;50.250;18.848;2022-10-13T14:55:43;23.42;;;16.30;;
37355;SDS011;48747;50.250;18.848;2022-10-13T14:57:48;27.22;;;16.82;;
37355;SDS011;48747;50.250;18.848;2022-10-13T14:59:55;30.35;;;16.30;;
37355;SDS011;48747;50.250;18.848;2022-10-13T15:01:58;29.20;;;17.12;;
37355;SDS011;48747;50.250;18.848;2022-10-13T15:04:02;33.13;;;15.95;;
37355;SDS011;48747;50.250;18.848;2022-10-13T15:06:25;27.40;;;16.95;;
37355;SDS011;48747;50.250;18.848;2022-10-13T15:08:27;24.72;;;17.35;;
37355;SDS011;48747;50.250;18.848;2022-10-13T15:10:31;24.92;;;16.42;;
37355;SDS011;48747;50.250;18.848;2022-10-13T15:12:34;29.80;;;16.42;;
37355;SDS011;48747;50.250;18.848;2022-10-13T15:14:41;28.10;;;16.90;;
37355;SDS011;48747;50.250;18.848;2022-10-13T15:16:47;26.40;;;16.80;;
37355;SDS011;48747;50.250;18.848;2022-10-13T15:19:06;26.50;;;16.90;;